createdAt,value
2018-07-10T00:00:36.944Z,3.40
2018-07-10T00:01:37.189Z,3.30
2018-07-10T00:02:37.436Z,4.10
2018-07-10T00:03:37.678Z,5.60
2018-07-10T00:04:37.921Z,3.80
2018-07-10T00:05:38.167Z,4.10
2018-07-10T00:06:38.413Z,4.80
2018-07-10T00:07:38.653Z,5.20
2018-07-10T00:08:38.895Z,5.10
2018-07-10T00:09:39.139Z,5.10
2018-07-10T00:10:39.388Z,4.70
2018-07-10T00:11:39.629Z,4.00
2018-07-10T00:12:39.876Z,4.80
2018-07-10T00:13:40.122Z,4.50
2018-07-10T00:14:40.364Z,5.20
2018-07-10T00:15:40.609Z,4.20
2018-07-10T00:16:40.852Z,4.90
2018-07-10T00:17:41.095Z,5.00
2018-07-10T00:18:41.342Z,5.20
2018-07-10T00:19:41.588Z,4.60
2018-07-10T00:20:41.830Z,5.90
2018-07-10T00:21:42.072Z,4.70
2018-07-10T00:22:42.320Z,5.00
2018-07-10T00:23:42.567Z,6.30
2018-07-10T00:24:42.816Z,4.60
2018-07-10T00:25:43.059Z,6.00
2018-07-10T00:26:43.301Z,4.90
2018-07-10T00:27:43.547Z,4.50
2018-07-10T00:28:43.790Z,4.20
2018-07-10T00:29:44.031Z,4.30
2018-07-10T00:30:44.276Z,5.80
2018-07-10T00:31:44.517Z,6.90
2018-07-10T00:32:44.761Z,4.60
2018-07-10T00:33:45.006Z,4.70
2018-07-10T00:34:45.246Z,4.60
2018-07-10T00:35:45.491Z,4.40
2018-07-10T00:36:45.737Z,5.60
2018-07-10T00:37:45.978Z,4.90
2018-07-10T00:38:46.222Z,4.40
2018-07-10T00:39:46.463Z,4.60
2018-07-10T00:40:46.708Z,4.40
2018-07-10T00:41:46.951Z,4.50
2018-07-10T00:42:47.194Z,4.40
2018-07-10T00:43:47.439Z,7.20
2018-07-10T00:44:47.683Z,5.00
2018-07-10T00:45:47.923Z,5.20
2018-07-10T00:46:48.167Z,5.10
2018-07-10T00:47:48.410Z,4.90
2018-07-10T00:48:48.654Z,5.90
2018-07-10T00:49:48.896Z,6.30
2018-07-10T00:50:49.139Z,4.70
2018-07-10T00:51:49.380Z,5.30
2018-07-10T00:52:49.622Z,4.60
2018-07-10T00:53:49.866Z,4.80
2018-07-10T00:54:50.110Z,4.60
2018-07-10T00:55:50.352Z,4.20
2018-07-10T00:56:50.597Z,4.30
2018-07-10T00:57:50.837Z,5.70
2018-07-10T00:58:51.080Z,4.50
2018-07-10T00:59:51.321Z,3.80
2018-07-10T01:00:51.564Z,4.20
2018-07-10T01:01:51.807Z,3.80
2018-07-10T01:02:52.049Z,3.70
2018-07-10T01:03:52.293Z,5.00
2018-07-10T01:04:52.534Z,6.10
2018-07-10T01:05:52.779Z,4.90
2018-07-10T01:06:53.022Z,7.30
2018-07-10T01:07:53.265Z,3.80
2018-07-10T01:08:53.510Z,4.10
2018-07-10T01:09:53.753Z,3.70
2018-07-10T01:10:53.994Z,3.50
2018-07-10T01:11:54.236Z,4.30
2018-07-10T01:12:54.478Z,5.70
2018-07-10T01:13:54.719Z,3.40
2018-07-10T01:14:54.962Z,3.60
2018-07-10T01:15:55.204Z,3.50
2018-07-10T01:16:55.446Z,4.50
2018-07-10T01:17:55.687Z,3.40
2018-07-10T01:18:55.963Z,5.60
2018-07-10T01:19:56.173Z,3.80
2018-07-10T01:20:56.415Z,3.60
2018-07-10T01:21:56.658Z,3.80
2018-07-10T01:22:56.900Z,5.20
2018-07-10T01:23:57.143Z,3.70
2018-07-10T01:24:57.384Z,4.60
2018-07-10T01:25:57.628Z,3.50
2018-07-10T01:26:57.869Z,4.20
2018-07-10T01:27:58.113Z,4.40
2018-07-10T01:28:58.355Z,4.10
2018-07-10T01:29:58.596Z,3.10
2018-07-10T01:30:58.836Z,4.80
2018-07-10T01:31:59.080Z,3.50
2018-07-10T01:32:59.323Z,3.90
2018-07-10T01:33:59.567Z,3.70
2018-07-10T01:34:59.805Z,4.00
2018-07-10T01:36:00.049Z,4.90
2018-07-10T01:37:00.292Z,6.70
2018-07-10T01:38:00.534Z,6.50
2018-07-10T01:39:00.776Z,3.70
2018-07-10T01:40:01.017Z,5.30
2018-07-10T01:41:01.259Z,3.00
2018-07-10T01:42:01.502Z,4.20
2018-07-10T01:43:01.743Z,3.90
2018-07-10T01:44:01.986Z,5.90
2018-07-10T01:45:02.228Z,3.90
2018-07-10T01:46:02.469Z,3.70
2018-07-10T01:47:02.711Z,3.70
2018-07-10T01:48:02.953Z,3.80
2018-07-10T01:49:03.200Z,3.70
2018-07-10T01:50:03.443Z,3.80
2018-07-10T01:51:03.684Z,4.30
2018-07-10T01:52:03.923Z,4.30
2018-07-10T01:53:04.169Z,4.10
2018-07-10T01:54:04.406Z,4.10
2018-07-10T01:55:04.651Z,4.50
2018-07-10T01:56:04.890Z,4.60
2018-07-10T01:57:05.133Z,5.80
2018-07-10T01:58:05.375Z,7.20
2018-07-10T01:59:05.615Z,4.00
2018-07-10T02:00:05.858Z,3.10
2018-07-10T02:01:06.100Z,3.90
2018-07-10T02:02:06.346Z,4.00
2018-07-10T02:03:06.584Z,5.20
2018-07-10T02:04:06.824Z,3.60
2018-07-10T02:05:07.067Z,6.30
2018-07-10T02:06:07.310Z,5.10
2018-07-10T02:07:07.552Z,4.80
2018-07-10T02:08:07.794Z,4.50
2018-07-10T02:09:08.078Z,4.70
2018-07-10T02:10:08.278Z,4.00
2018-07-10T02:11:08.520Z,4.50
2018-07-10T02:12:08.761Z,3.90
2018-07-10T02:13:09.003Z,3.40
2018-07-10T02:14:09.293Z,4.80
2018-07-10T02:15:09.487Z,4.50
2018-07-10T02:16:09.728Z,5.30
2018-07-10T02:17:09.971Z,3.50
2018-07-10T02:18:10.212Z,3.60
2018-07-10T02:19:10.456Z,5.30
2018-07-10T02:20:10.698Z,7.40
2018-07-10T02:21:10.939Z,3.50
2018-07-10T02:22:11.181Z,4.40
2018-07-10T02:23:11.423Z,3.10
2018-07-10T02:24:11.663Z,4.70
2018-07-10T02:25:11.907Z,4.00
2018-07-10T02:26:12.149Z,3.80
2018-07-10T02:27:12.392Z,4.20
2018-07-10T02:28:12.637Z,4.80
2018-07-10T02:29:12.879Z,5.00
2018-07-10T02:30:13.124Z,6.10
2018-07-10T02:31:13.364Z,4.20
2018-07-10T02:32:13.607Z,5.50
2018-07-10T02:33:13.849Z,5.10
2018-07-10T02:34:14.100Z,5.20
2018-07-10T02:35:14.342Z,3.40
2018-07-10T02:36:14.579Z,3.30
2018-07-10T02:37:14.820Z,6.30
2018-07-10T02:38:15.061Z,6.90
2018-07-10T02:39:15.302Z,5.40
2018-07-10T02:40:15.545Z,6.50
2018-07-10T02:41:15.790Z,6.90
2018-07-10T02:42:16.032Z,7.10
2018-07-10T02:43:16.272Z,3.60
2018-07-10T02:44:16.512Z,9.40
2018-07-10T02:45:16.754Z,9.00
2018-07-10T02:46:16.993Z,7.70
2018-07-10T02:47:17.234Z,4.30
2018-07-10T02:48:17.475Z,3.50
2018-07-10T02:49:17.717Z,5.30
2018-07-10T02:50:17.962Z,4.20
2018-07-10T02:51:18.202Z,5.30
2018-07-10T02:52:18.448Z,5.30
2018-07-10T02:53:18.682Z,5.30
2018-07-10T02:54:18.921Z,4.40
2018-07-10T02:55:19.161Z,6.40
2018-07-10T02:56:19.404Z,7.40
2018-07-10T02:57:19.644Z,4.90
2018-07-10T02:58:19.885Z,7.20
2018-07-10T02:59:20.131Z,9.30
2018-07-10T03:00:20.375Z,5.20
2018-07-10T03:01:20.618Z,5.80
2018-07-10T03:02:20.855Z,6.50
2018-07-10T03:03:21.096Z,5.30
2018-07-10T03:04:21.336Z,6.00
2018-07-10T03:05:21.579Z,7.00
2018-07-10T03:06:21.818Z,6.40
2018-07-10T03:07:22.058Z,4.30
2018-07-10T03:08:22.298Z,5.70
2018-07-10T03:09:22.537Z,6.50
2018-07-10T03:10:22.779Z,6.40
2018-07-10T03:11:23.021Z,5.00
2018-07-10T03:12:23.262Z,4.90
2018-07-10T03:13:23.499Z,6.50
2018-07-10T03:14:23.741Z,7.00
2018-07-10T03:15:23.982Z,4.70
2018-07-10T03:16:24.224Z,5.60
2018-07-10T03:17:24.464Z,8.30
2018-07-10T03:18:24.705Z,4.20
2018-07-10T03:19:24.947Z,4.80
2018-07-10T03:20:25.195Z,5.10
2018-07-10T03:21:25.432Z,9.60
2018-07-10T03:22:25.671Z,5.50
2018-07-10T03:23:25.912Z,5.20
2018-07-10T03:24:26.151Z,5.30
2018-07-10T03:25:26.392Z,5.10
2018-07-10T03:26:26.633Z,5.80
2018-07-10T03:27:26.874Z,4.60
2018-07-10T03:28:27.115Z,5.30
2018-07-10T03:29:27.355Z,5.70
2018-07-10T03:30:27.597Z,7.30
2018-07-10T03:31:27.837Z,5.20
2018-07-10T03:32:28.077Z,6.60
2018-07-10T03:33:28.317Z,7.00
2018-07-10T03:34:28.560Z,6.50
2018-07-10T03:35:28.803Z,4.10
2018-07-10T03:36:29.084Z,6.40
2018-07-10T03:37:29.278Z,8.30
2018-07-10T03:38:29.519Z,4.30
2018-07-10T03:39:29.761Z,7.50
2018-07-10T03:40:30.001Z,7.10
2018-07-10T03:41:30.243Z,7.90
2018-07-10T03:42:30.482Z,4.20
2018-07-10T03:43:30.723Z,7.00
2018-07-10T03:44:30.964Z,6.70
2018-07-10T03:45:31.205Z,5.30
2018-07-10T03:46:31.446Z,6.80
2018-07-10T03:47:31.690Z,7.20
2018-07-10T03:48:31.928Z,8.50
2018-07-10T03:49:32.168Z,8.10
2018-07-10T03:50:32.410Z,6.80
2018-07-10T03:51:32.650Z,3.90
2018-07-10T03:52:32.928Z,6.10
2018-07-10T03:53:33.131Z,4.50
2018-07-10T03:54:33.373Z,7.40
2018-07-10T03:55:33.615Z,7.20
2018-07-10T03:56:33.857Z,10.60
2018-07-10T03:57:34.104Z,4.20
2018-07-10T03:58:34.339Z,9.10
2018-07-10T03:59:34.582Z,4.00
2018-07-10T04:00:34.824Z,8.30
2018-07-10T04:01:35.090Z,7.20
2018-07-10T04:02:35.307Z,5.10
2018-07-10T04:03:35.549Z,5.60
2018-07-10T04:04:35.793Z,5.10
2018-07-10T04:05:36.035Z,5.40
2018-07-10T04:06:36.275Z,6.00
2018-07-10T04:07:36.519Z,7.60
2018-07-10T04:08:36.757Z,6.00
2018-07-10T04:09:36.998Z,6.80
2018-07-10T04:10:37.242Z,9.10
2018-07-10T04:11:37.495Z,7.40
2018-07-10T04:12:37.724Z,8.20
2018-07-10T04:13:37.966Z,7.40
2018-07-10T04:14:38.208Z,5.80
2018-07-10T04:15:38.449Z,6.50
2018-07-10T04:16:38.693Z,3.60
2018-07-10T04:17:38.933Z,5.60
2018-07-10T04:18:39.176Z,4.40
2018-07-10T04:19:39.415Z,8.60
2018-07-10T04:20:39.657Z,7.40
2018-07-10T04:21:39.898Z,6.40
2018-07-10T04:22:40.139Z,6.10
2018-07-10T04:23:40.382Z,6.90
2018-07-10T04:24:40.624Z,7.40
2018-07-10T04:25:40.865Z,6.80
2018-07-10T04:26:41.108Z,5.40
2018-07-10T04:27:41.350Z,7.40
2018-07-10T04:28:41.599Z,4.90
2018-07-10T04:29:41.835Z,7.30
2018-07-10T04:30:42.077Z,5.60
2018-07-10T04:31:42.321Z,4.10
2018-07-10T04:32:42.562Z,8.00
2018-07-10T04:33:42.802Z,7.30
2018-07-10T04:34:43.043Z,7.70
2018-07-10T04:35:43.285Z,4.70
2018-07-10T04:36:43.527Z,5.70
2018-07-10T04:37:43.771Z,9.70
2018-07-10T04:38:44.010Z,7.40
2018-07-10T04:39:44.250Z,8.70
2018-07-10T04:40:44.492Z,4.20
2018-07-10T04:41:44.734Z,6.10
2018-07-10T04:42:44.975Z,9.00
2018-07-10T04:43:45.217Z,9.00
2018-07-10T04:44:45.458Z,6.10
2018-07-10T04:45:45.701Z,6.70
2018-07-10T04:46:45.945Z,5.30
2018-07-10T04:47:46.186Z,9.20
2018-07-10T04:48:46.428Z,7.00
2018-07-10T04:49:46.668Z,7.10
2018-07-10T04:50:46.911Z,6.80
2018-07-10T04:51:47.151Z,5.90
2018-07-10T04:52:47.393Z,5.50
2018-07-10T04:53:47.622Z,10.40
2018-07-10T04:54:47.884Z,4.80
2018-07-10T04:55:48.126Z,4.70
2018-07-10T04:56:48.369Z,6.90
2018-07-10T04:57:48.612Z,5.50
2018-07-10T04:58:48.853Z,5.70
2018-07-10T04:59:49.098Z,8.30
2018-07-10T05:00:49.339Z,7.30
2018-07-10T05:01:49.585Z,5.80
2018-07-10T05:02:49.826Z,7.50
2018-07-10T05:03:50.070Z,6.70
2018-07-10T05:04:50.317Z,10.90
2018-07-10T05:05:50.603Z,6.80
2018-07-10T05:06:50.806Z,7.40
2018-07-10T05:07:51.052Z,6.00
2018-07-10T05:08:51.296Z,9.90
2018-07-10T05:09:51.539Z,7.20
2018-07-10T05:10:51.781Z,11.60
2018-07-10T05:11:52.024Z,6.10
2018-07-10T05:12:52.266Z,6.10
2018-07-10T05:13:52.506Z,8.40
2018-07-10T05:14:52.751Z,5.90
2018-07-10T05:15:52.992Z,5.50
2018-07-10T05:16:53.234Z,6.70
2018-07-10T05:17:53.476Z,6.90
2018-07-10T05:18:53.717Z,12.50
2018-07-10T05:19:53.959Z,6.30
2018-07-10T05:20:54.200Z,7.50
2018-07-10T05:21:54.443Z,8.40
2018-07-10T05:22:54.687Z,8.20
2018-07-10T05:23:54.926Z,3.70
2018-07-10T05:24:55.169Z,7.70
2018-07-10T05:25:55.410Z,4.30
2018-07-10T05:26:55.652Z,6.80
2018-07-10T05:27:55.895Z,4.40
2018-07-10T05:28:56.224Z,5.40
2018-07-10T05:29:56.381Z,4.10
2018-07-10T05:30:56.625Z,8.40
2018-07-10T05:31:56.866Z,4.90
2018-07-10T05:32:57.108Z,9.20
2018-07-10T05:33:57.350Z,4.90
2018-07-10T05:34:57.595Z,5.10
2018-07-10T05:35:57.840Z,6.70
2018-07-10T05:36:58.083Z,4.60
2018-07-10T05:37:58.325Z,4.50
2018-07-10T05:38:58.569Z,6.20
2018-07-10T05:39:58.815Z,5.00
2018-07-10T05:40:59.053Z,7.20
2018-07-10T05:41:59.304Z,6.40
2018-07-10T05:42:59.539Z,3.30
2018-07-10T05:43:59.782Z,6.80
2018-07-10T05:45:00.049Z,4.20
2018-07-10T05:46:00.274Z,4.70
2018-07-10T05:47:00.510Z,7.40
2018-07-10T05:48:00.755Z,4.70
2018-07-10T05:49:00.997Z,5.40
2018-07-10T05:50:01.237Z,6.10
2018-07-10T05:51:01.481Z,4.30
2018-07-10T05:52:01.759Z,5.90
2018-07-10T05:53:01.967Z,3.80
2018-07-10T05:54:02.208Z,5.70
2018-07-10T05:55:02.455Z,6.60
2018-07-10T05:56:02.695Z,3.90
2018-07-10T05:57:02.938Z,6.40
2018-07-10T05:58:03.180Z,4.80
2018-07-10T05:59:03.424Z,5.60
2018-07-10T06:00:03.667Z,4.60
2018-07-10T06:01:03.934Z,4.60
2018-07-10T06:02:04.153Z,3.20
2018-07-10T06:03:04.397Z,6.00
2018-07-10T06:04:04.640Z,4.10
2018-07-10T06:05:04.884Z,3.90
2018-07-10T06:06:05.126Z,5.00
2018-07-10T06:07:05.369Z,4.10
2018-07-10T06:08:05.616Z,4.40
2018-07-10T06:09:05.857Z,5.30
2018-07-10T06:10:06.100Z,4.70
2018-07-10T06:11:06.343Z,3.20
2018-07-10T06:12:06.588Z,4.30
2018-07-10T06:13:06.830Z,3.40
2018-07-10T06:14:07.144Z,5.00
2018-07-10T06:15:07.317Z,4.30
2018-07-10T06:16:07.561Z,6.20
2018-07-10T06:17:07.802Z,4.30
2018-07-10T06:18:08.043Z,3.20
2018-07-10T06:19:08.285Z,5.80
2018-07-10T06:20:08.527Z,3.30
2018-07-10T06:21:08.771Z,3.50
2018-07-10T06:22:09.013Z,2.80
2018-07-10T06:23:09.255Z,4.30
2018-07-10T06:24:09.500Z,4.40
2018-07-10T06:25:09.745Z,5.00
2018-07-10T06:26:09.984Z,5.60
2018-07-10T06:27:10.226Z,3.70
2018-07-10T06:28:10.494Z,3.00
2018-07-10T06:29:10.712Z,5.00
2018-07-10T06:30:10.955Z,6.60
2018-07-10T06:31:11.200Z,4.60
2018-07-10T06:32:11.440Z,4.60
2018-07-10T06:33:11.682Z,4.50
2018-07-10T06:34:11.927Z,4.10
2018-07-10T06:35:12.169Z,3.10
2018-07-10T06:36:12.412Z,5.60
2018-07-10T06:37:12.656Z,4.70
2018-07-10T06:38:12.900Z,4.70
2018-07-10T06:39:13.142Z,4.70
2018-07-10T06:40:13.387Z,4.70
2018-07-10T06:41:13.632Z,3.70
2018-07-10T06:42:13.876Z,3.20
2018-07-10T06:43:14.118Z,4.70
2018-07-10T06:44:14.362Z,4.70
2018-07-10T06:45:14.605Z,5.80
2018-07-10T06:46:14.849Z,3.40
2018-07-10T06:47:15.094Z,5.20
2018-07-10T06:48:15.337Z,3.60
2018-07-10T06:49:15.581Z,4.10
2018-07-10T06:50:15.825Z,6.70
2018-07-10T06:51:16.070Z,3.90
2018-07-10T06:52:16.381Z,3.30
2018-07-10T06:53:16.930Z,3.70
2018-07-10T06:54:16.803Z,3.00
2018-07-10T06:55:17.047Z,4.50
2018-07-10T06:56:17.293Z,4.90
2018-07-10T06:57:17.545Z,2.80
2018-07-10T06:58:17.782Z,2.50
2018-07-10T06:59:18.027Z,5.90
2018-07-10T07:00:18.273Z,5.20
2018-07-10T07:01:18.519Z,4.20
2018-07-10T07:02:18.764Z,2.00
2018-07-10T07:03:19.008Z,3.50
2018-07-10T07:04:19.252Z,4.50
2018-07-10T07:05:19.498Z,3.60
2018-07-10T07:06:19.742Z,4.80
2018-07-10T07:07:19.988Z,3.20
2018-07-10T07:08:20.229Z,4.60
2018-07-10T07:09:20.474Z,4.20
2018-07-10T07:10:20.720Z,6.20
2018-07-10T07:11:20.966Z,3.70
2018-07-10T07:12:21.210Z,3.40
2018-07-10T07:13:21.456Z,4.70
2018-07-10T07:14:21.703Z,4.20
2018-07-10T07:15:21.948Z,4.10
2018-07-10T07:16:22.193Z,5.60
2018-07-10T07:17:22.438Z,2.90
2018-07-10T07:18:22.683Z,5.00
2018-07-10T07:19:22.931Z,4.00
2018-07-10T07:20:23.176Z,2.40
2018-07-10T07:21:23.420Z,3.40
2018-07-10T07:22:23.665Z,2.50
2018-07-10T07:23:23.910Z,4.40
2018-07-10T07:24:24.155Z,4.60
2018-07-10T07:25:24.406Z,5.80
2018-07-10T07:26:24.647Z,2.60
2018-07-10T07:27:24.902Z,4.70
2018-07-10T07:28:25.138Z,3.90
2018-07-10T07:29:25.383Z,2.80
2018-07-10T07:30:25.629Z,4.60
2018-07-10T07:31:25.875Z,3.70
2018-07-10T07:32:26.121Z,3.70
2018-07-10T07:33:26.367Z,3.40
2018-07-10T07:34:26.613Z,2.20
2018-07-10T07:35:26.863Z,2.50
2018-07-10T07:36:27.106Z,3.50
2018-07-10T07:37:27.351Z,1.90
2018-07-10T07:38:27.597Z,3.10
2018-07-10T07:39:27.844Z,2.80
2018-07-10T07:40:28.091Z,2.70
2018-07-10T07:41:28.337Z,3.70
2018-07-10T07:42:28.584Z,3.10
2018-07-10T07:43:28.830Z,1.80
2018-07-10T07:44:29.147Z,2.90
2018-07-10T07:45:29.323Z,2.30
2018-07-10T07:46:29.570Z,3.10
2018-07-10T07:47:29.818Z,2.50
2018-07-10T07:48:30.063Z,3.30
2018-07-10T07:49:30.310Z,2.00
2018-07-10T07:50:30.556Z,1.70
2018-07-10T07:51:30.802Z,3.50
2018-07-10T07:52:31.076Z,1.60
2018-07-10T07:53:31.293Z,2.20
2018-07-10T07:54:31.540Z,1.70
2018-07-10T07:55:31.788Z,3.70
2018-07-10T07:56:32.030Z,2.30
2018-07-10T07:57:32.276Z,4.90
2018-07-10T07:58:32.552Z,2.90
2018-07-10T07:59:32.767Z,1.80
2018-07-10T08:00:33.105Z,2.10
2018-07-10T08:01:33.257Z,2.90
2018-07-10T08:02:33.502Z,4.10
2018-07-10T08:03:33.746Z,4.20
2018-07-10T08:04:33.993Z,2.00
2018-07-10T08:05:34.242Z,1.10
2018-07-10T08:06:34.484Z,3.20
2018-07-10T08:07:34.731Z,1.30
2018-07-10T08:08:34.977Z,2.70
2018-07-10T08:09:35.220Z,1.50
2018-07-10T08:10:35.468Z,1.80
2018-07-10T08:11:35.712Z,3.10
2018-07-10T08:12:35.958Z,1.40
2018-07-10T08:13:36.205Z,2.90
2018-07-10T08:14:36.449Z,2.90
2018-07-10T08:15:36.696Z,3.50
2018-07-10T08:16:36.942Z,1.60
2018-07-10T08:17:37.187Z,2.30
2018-07-10T08:18:37.432Z,1.50
2018-07-10T08:19:37.679Z,1.80
2018-07-10T08:20:37.926Z,1.40
2018-07-10T08:21:38.173Z,3.10
2018-07-10T08:22:38.425Z,1.50
2018-07-10T08:23:38.667Z,2.90
2018-07-10T08:24:38.939Z,1.80
2018-07-10T08:25:39.159Z,4.00
2018-07-10T08:26:39.405Z,1.90
2018-07-10T08:27:39.651Z,2.30
2018-07-10T08:28:39.896Z,1.70
2018-07-10T08:29:40.145Z,2.70
2018-07-10T08:30:40.392Z,3.30
2018-07-10T08:31:40.638Z,1.50
2018-07-10T08:32:40.885Z,2.70
2018-07-10T08:33:41.162Z,2.10
2018-07-10T08:34:41.382Z,1.80
2018-07-10T08:35:41.629Z,1.90
2018-07-10T08:36:41.877Z,3.40
2018-07-10T08:37:42.123Z,1.70
2018-07-10T08:38:42.372Z,3.10
2018-07-10T08:39:42.617Z,5.70
2018-07-10T08:40:42.865Z,1.70
2018-07-10T08:41:43.112Z,2.10
2018-07-10T08:42:43.361Z,3.10
2018-07-10T08:43:43.609Z,1.40
2018-07-10T08:44:43.858Z,3.40
2018-07-10T08:45:44.108Z,1.70
2018-07-10T08:46:44.356Z,3.00
2018-07-10T08:47:44.607Z,2.30
2018-07-10T08:48:44.855Z,5.50
2018-07-10T08:49:45.113Z,2.00
2018-07-10T08:50:45.449Z,1.60
2018-07-10T08:51:45.606Z,1.50
2018-07-10T08:52:45.860Z,1.90
2018-07-10T08:53:46.108Z,1.80
2018-07-10T08:54:46.358Z,2.50
2018-07-10T08:55:46.609Z,2.10
2018-07-10T08:56:46.860Z,2.80
2018-07-10T08:57:47.110Z,1.10
2018-07-10T08:58:47.362Z,2.10
2018-07-10T08:59:47.670Z,1.80
2018-07-10T09:00:47.866Z,1.70
2018-07-10T09:01:48.117Z,3.40
2018-07-10T09:02:48.370Z,3.80
2018-07-10T09:03:48.620Z,1.90
2018-07-10T09:04:48.870Z,1.40
2018-07-10T09:05:49.122Z,1.60
2018-07-10T09:06:49.376Z,1.40
2018-07-10T09:07:49.632Z,2.20
2018-07-10T09:08:49.873Z,3.30
2018-07-10T09:09:50.123Z,1.80
2018-07-10T09:10:50.373Z,3.40
2018-07-10T09:11:50.621Z,1.20
2018-07-10T09:12:50.870Z,2.10
2018-07-10T09:13:51.134Z,1.40
2018-07-10T09:14:51.368Z,1.70
2018-07-10T09:15:51.655Z,4.30
2018-07-10T09:16:51.867Z,1.70
2018-07-10T09:17:52.116Z,2.10
2018-07-10T09:18:52.365Z,2.90
2018-07-10T09:19:52.614Z,1.70
2018-07-10T09:20:52.863Z,2.60
2018-07-10T09:21:53.111Z,2.80
2018-07-10T09:22:53.362Z,3.10
2018-07-10T09:23:53.609Z,2.80
2018-07-10T09:24:53.858Z,1.70
2018-07-10T09:25:54.108Z,2.50
2018-07-10T09:26:54.357Z,2.80
2018-07-10T09:27:54.605Z,2.10
2018-07-10T09:28:54.854Z,2.20
2018-07-10T09:29:55.102Z,3.00
2018-07-10T09:30:55.351Z,0.70
2018-07-10T09:31:55.605Z,1.70
2018-07-10T09:32:55.851Z,1.10
2018-07-10T09:33:56.099Z,1.90
2018-07-10T09:34:56.348Z,1.80
2018-07-10T09:35:56.596Z,2.20
2018-07-10T09:36:56.843Z,1.40
2018-07-10T09:37:57.092Z,5.50
2018-07-10T09:38:57.340Z,3.00
2018-07-10T09:39:57.642Z,2.40
2018-07-10T09:40:57.837Z,2.30
2018-07-10T09:41:58.084Z,2.50
2018-07-10T09:42:58.334Z,3.30
2018-07-10T09:43:58.641Z,3.60
2018-07-10T09:44:58.830Z,1.20
2018-07-10T09:45:59.078Z,2.50
2018-07-10T09:46:59.383Z,1.50
2018-07-10T09:47:59.574Z,2.10
2018-07-10T09:48:59.822Z,2.60
2018-07-10T09:50:00.073Z,2.70
2018-07-10T09:51:00.320Z,2.00
2018-07-10T09:52:00.568Z,3.00
2018-07-10T09:53:00.815Z,3.80
2018-07-10T09:54:01.063Z,3.00
2018-07-10T09:55:01.334Z,3.00
2018-07-10T09:56:01.561Z,2.10
2018-07-10T09:57:01.805Z,1.50
2018-07-10T09:58:02.052Z,2.90
2018-07-10T09:59:02.303Z,2.90
2018-07-10T10:00:02.549Z,2.70
2018-07-10T10:01:02.794Z,2.40
2018-07-10T10:02:03.042Z,1.30
2018-07-10T10:03:03.286Z,3.10
2018-07-10T10:04:03.537Z,2.70
2018-07-10T10:05:03.784Z,2.60
2018-07-10T10:06:04.030Z,2.80
2018-07-10T10:07:04.275Z,2.60
2018-07-10T10:08:04.521Z,2.40
2018-07-10T10:09:04.771Z,2.40
2018-07-10T10:10:05.017Z,2.60
2018-07-10T10:11:05.266Z,3.10
2018-07-10T10:12:05.512Z,2.30
2018-07-10T10:13:05.759Z,3.30
2018-07-10T10:14:06.007Z,2.70
2018-07-10T10:15:06.253Z,2.50
2018-07-10T10:16:06.500Z,2.00
2018-07-10T10:17:06.753Z,2.70
2018-07-10T10:18:06.996Z,2.10
2018-07-10T10:19:07.245Z,4.60
2018-07-10T10:20:07.492Z,1.60
2018-07-10T10:21:07.740Z,1.90
2018-07-10T10:22:07.989Z,2.00
2018-07-10T10:23:08.236Z,6.10
2018-07-10T10:24:08.485Z,1.70
2018-07-10T10:25:08.735Z,3.10
2018-07-10T10:26:08.987Z,3.90
2018-07-10T10:27:09.231Z,4.70
2018-07-10T10:28:09.482Z,5.00
2018-07-10T10:29:09.728Z,1.40
2018-07-10T10:30:09.977Z,3.00
2018-07-10T10:31:10.225Z,5.40
2018-07-10T10:32:10.475Z,2.10
2018-07-10T10:33:10.725Z,2.00
2018-07-10T10:34:10.975Z,1.30
2018-07-10T10:35:11.225Z,2.10
2018-07-10T10:36:11.484Z,2.30
2018-07-10T10:37:11.728Z,2.30
2018-07-10T10:38:11.979Z,1.30
2018-07-10T10:39:12.232Z,2.10
2018-07-10T10:40:12.485Z,1.50
2018-07-10T10:41:12.739Z,2.80
2018-07-10T10:42:12.992Z,2.30
2018-07-10T10:43:13.244Z,3.20
2018-07-10T10:44:13.498Z,1.20
2018-07-10T10:45:13.752Z,1.70
2018-07-10T10:46:14.005Z,2.40
2018-07-10T10:47:14.258Z,3.20
2018-07-10T10:48:14.512Z,5.00
2018-07-10T10:49:14.767Z,1.50
2018-07-10T10:50:15.019Z,1.30
2018-07-10T10:51:15.274Z,4.20
2018-07-10T10:52:15.526Z,0.90
2018-07-10T10:53:15.777Z,1.90
2018-07-10T10:54:16.033Z,1.30
2018-07-10T10:55:16.288Z,1.00
2018-07-10T10:56:16.538Z,1.80
2018-07-10T10:57:16.791Z,1.40
2018-07-10T10:58:17.044Z,1.00
2018-07-10T10:59:17.297Z,1.30
2018-07-10T11:00:17.548Z,2.00
2018-07-10T11:01:17.804Z,1.20
2018-07-10T11:02:18.059Z,1.40
2018-07-10T11:03:18.310Z,2.80
2018-07-10T11:04:18.560Z,1.50
2018-07-10T11:05:18.814Z,1.40
2018-07-10T11:06:19.067Z,2.50
2018-07-10T11:07:19.321Z,1.30
2018-07-10T11:08:19.573Z,1.10
2018-07-10T11:09:19.827Z,2.00
2018-07-10T11:10:20.082Z,1.00
2018-07-10T11:11:20.332Z,2.10
2018-07-10T11:12:20.585Z,1.10
2018-07-10T11:13:20.837Z,1.10
2018-07-10T11:14:21.090Z,1.20
2018-07-10T11:15:21.397Z,0.90
2018-07-10T11:16:21.594Z,1.00
2018-07-10T11:17:21.845Z,0.60
2018-07-10T11:18:22.102Z,0.70
2018-07-10T11:19:22.351Z,1.20
2018-07-10T11:20:22.602Z,1.60
2018-07-10T11:21:22.854Z,1.00
2018-07-10T11:22:23.106Z,2.50
2018-07-10T11:23:23.358Z,0.80
2018-07-10T11:24:23.610Z,1.90
2018-07-10T11:25:23.861Z,3.10
2018-07-10T11:26:24.110Z,2.60
2018-07-10T11:27:24.362Z,1.30
2018-07-10T11:28:24.614Z,1.10
2018-07-10T11:29:24.863Z,0.70
2018-07-10T11:30:25.157Z,3.40
2018-07-10T11:31:25.367Z,0.80
2018-07-10T11:32:25.617Z,0.70
2018-07-10T11:33:25.867Z,1.90
2018-07-10T11:34:26.119Z,1.00
2018-07-10T11:35:26.370Z,1.10
2018-07-10T11:36:26.621Z,1.00
2018-07-10T11:37:26.870Z,0.90
2018-07-10T11:38:27.120Z,1.50
2018-07-10T11:39:27.388Z,2.00
2018-07-10T11:40:27.621Z,1.30
2018-07-10T11:41:27.870Z,0.90
2018-07-10T11:42:28.123Z,2.40
2018-07-10T11:43:28.372Z,2.20
2018-07-10T11:44:28.621Z,1.10
2018-07-10T11:45:28.873Z,1.10
2018-07-10T11:46:29.126Z,1.90
2018-07-10T11:47:29.372Z,1.50
2018-07-10T11:48:29.624Z,1.30
2018-07-10T11:49:29.872Z,2.00
2018-07-10T11:50:30.120Z,1.70
2018-07-10T11:51:30.506Z,2.70
2018-07-10T11:52:30.619Z,3.50
2018-07-10T11:53:30.869Z,1.30
2018-07-10T11:54:31.121Z,2.30
2018-07-10T11:55:31.367Z,2.20
2018-07-10T11:56:31.615Z,2.60
2018-07-10T11:57:31.868Z,1.20
2018-07-10T11:58:32.114Z,1.70
2018-07-10T11:59:32.363Z,1.90
2018-07-10T12:00:32.612Z,2.70
2018-07-10T12:01:32.859Z,1.90
2018-07-10T12:02:33.107Z,1.30
2018-07-10T12:03:33.357Z,1.90
2018-07-10T12:04:33.604Z,1.10
2018-07-10T12:05:33.853Z,1.70
2018-07-10T12:06:34.103Z,3.20
2018-07-10T12:07:34.349Z,1.30
2018-07-10T12:08:34.597Z,1.80
2018-07-10T12:09:34.846Z,6.40
2018-07-10T12:10:35.095Z,2.20
2018-07-10T12:11:35.343Z,1.50
2018-07-10T12:12:35.631Z,4.30
2018-07-10T12:13:35.839Z,3.50
2018-07-10T12:14:36.086Z,2.00
2018-07-10T12:15:36.336Z,2.80
2018-07-10T12:16:36.588Z,2.00
2018-07-10T12:17:36.833Z,2.80
2018-07-10T12:18:37.081Z,1.60
2018-07-10T12:19:37.331Z,1.60
2018-07-10T12:20:37.602Z,6.00
2018-07-10T12:21:37.830Z,1.50
2018-07-10T12:22:38.078Z,4.20
2018-07-10T12:23:38.327Z,2.90
2018-07-10T12:24:38.578Z,1.10
2018-07-10T12:25:38.828Z,4.40
2018-07-10T12:26:39.093Z,2.40
2018-07-10T12:27:39.328Z,1.70
2018-07-10T12:28:39.574Z,2.10
2018-07-10T12:29:39.824Z,1.80
2018-07-10T12:30:40.072Z,1.10
2018-07-10T12:31:40.321Z,2.30
2018-07-10T12:32:40.571Z,1.30
2018-07-10T12:33:40.819Z,1.70
2018-07-10T12:34:41.068Z,1.50
2018-07-10T12:35:41.318Z,1.40
2018-07-10T12:36:41.566Z,1.20
2018-07-10T12:37:41.814Z,1.80
2018-07-10T12:38:42.064Z,4.00
2018-07-10T12:39:42.312Z,1.30
2018-07-10T12:40:42.560Z,3.50
2018-07-10T12:41:42.843Z,2.60
2018-07-10T12:42:43.060Z,1.10
2018-07-10T12:43:43.309Z,1.30
2018-07-10T12:44:43.557Z,3.70
2018-07-10T12:45:43.806Z,2.60
2018-07-10T12:46:44.055Z,1.90
2018-07-10T12:47:44.301Z,3.10
2018-07-10T12:48:44.552Z,1.60
2018-07-10T12:49:44.799Z,1.40
2018-07-10T12:50:45.049Z,2.20
2018-07-10T12:51:45.295Z,3.60
2018-07-10T12:52:45.547Z,1.30
2018-07-10T12:53:45.795Z,1.30
2018-07-10T12:54:46.043Z,3.70
2018-07-10T12:55:46.291Z,1.90
2018-07-10T12:56:46.541Z,2.20
2018-07-10T12:57:46.786Z,2.60
2018-07-10T12:58:47.036Z,2.10
2018-07-10T12:59:47.285Z,1.00
2018-07-10T13:00:47.534Z,4.20
2018-07-10T13:01:47.782Z,1.30
2018-07-10T13:02:48.029Z,2.40
2018-07-10T13:03:48.276Z,1.50
2018-07-10T13:04:48.524Z,3.30
2018-07-10T13:05:48.771Z,1.90
2018-07-10T13:06:49.018Z,1.80
2018-07-10T13:07:49.265Z,2.00
2018-07-10T13:08:49.512Z,3.90
2018-07-10T13:09:49.759Z,3.00
2018-07-10T13:10:50.008Z,2.40
2018-07-10T13:11:50.256Z,1.30
2018-07-10T13:12:50.504Z,1.30
2018-07-10T13:13:50.753Z,2.90
2018-07-10T13:14:51.001Z,1.90
2018-07-10T13:15:51.247Z,3.60
2018-07-10T13:16:51.494Z,1.40
2018-07-10T13:17:51.741Z,4.30
2018-07-10T13:18:51.987Z,2.10
2018-07-10T13:19:52.232Z,3.10
2018-07-10T13:20:52.486Z,6.00
2018-07-10T13:21:52.730Z,2.60